Time;durP1;ratioP1;P1;durP2;ratioP2;P2;SDS_P1;SDS_P2;PMS_P1;PMS_P2;Temp;Humidity;BMP_temperature;BMP_pressure;BME280_temperature;BME280_humidity;BME280_pressure;Samples;Min_cycle;Max_cycle;Signal;HPM_P1;HPM_P2
2023/06/18 00:00:19;;;;;;;2.07;1.97;;;;;16.00;95907.00;;;;5034536;28;20212;-56
2023/06/18 00:02:46;;;;;;;1.27;1.27;;;;;16.00;95911.00;;;;5034298;28;20217;-56
2023/06/18 00:05:14;;;;;;;1.40;1.30;;;;;16.00;95895.00;;;;5034560;28;20207;-56
2023/06/18 00:07:42;;;;;;;2.20;2.10;;;;;16.10;95898.00;;;;5033901;28;20188;-56
2023/06/18 00:10:09;;;;;;;2.37;2.17;;;;;16.20;95901.00;;;;5034163;28;20575;-56
2023/06/18 00:12:37;;;;;;;1.77;1.67;;;;;16.10;95893.00;;;;5034473;28;20188;-56
2023/06/18 00:15:07;;;;;;;1.53;1.33;;;;;16.00;95894.00;;;;5032824;28;20687;-56
2023/06/18 00:17:35;;;;;;;2.37;2.20;;;;;15.90;95906.00;;;;5034104;28;20250;-56
2023/06/18 00:20:03;;;;;;;1.63;1.53;;;;;15.60;95903.00;;;;5034073;28;20263;-56
2023/06/18 00:22:31;;;;;;;2.00;1.90;;;;;15.70;95898.00;;;;5034182;28;20216;-56
2023/06/18 00:24:59;;;;;;;1.10;1.10;;;;;15.60;95901.00;;;;5033960;28;20231;-56
2023/06/18 00:27:26;;;;;;;1.90;1.80;;;;;15.60;95899.00;;;;5033885;28;20247;-56
2023/06/18 00:29:53;;;;;;;1.73;1.63;;;;;15.60;95900.00;;;;5033792;28;20213;-56
2023/06/18 00:32:22;;;;;;;1.80;1.70;;;;;15.60;95902.00;;;;5033791;28;20583;-57
2023/06/18 00:34:53;;;;;;;1.57;1.47;;;;;15.60;95900.00;;;;5033788;28;20197;-56
2023/06/18 00:37:20;;;;;;;1.57;1.47;;;;;15.40;95894.00;;;;5033786;28;20185;-56
2023/06/18 00:39:48;;;;;;;1.30;1.30;;;;;15.30;95898.00;;;;5033522;28;20626;-56
2023/06/18 00:42:15;;;;;;;1.30;1.20;;;;;15.30;95895.00;;;;5033808;28;20584;-56
2023/06/18 00:44:43;;;;;;;5.13;2.20;;;;;15.50;95891.00;;;;5033587;28;20192;-60
2023/06/18 00:47:12;;;;;;;2.17;1.97;;;;;15.50;95889.00;;;;5033727;28;20189;-58
2023/06/18 00:49:42;;;;;;;4.03;3.67;;;;;15.60;95885.00;;;;5033691;28;20227;-57
2023/06/18 00:52:12;;;;;;;1.47;1.37;;;;;15.50;95885.00;;;;5033487;28;20227;-56
2023/06/18 00:54:40;;;;;;;1.40;1.40;;;;;15.40;95883.00;;;;5033442;28;20255;-56
2023/06/18 00:57:09;;;;;;;1.70;1.60;;;;;15.30;95884.00;;;;5033614;28;20618;-56
2023/06/18 00:59:37;;;;;;;1.13;1.13;;;;;15.30;95881.00;;;;5033281;28;20266;-56
2023/06/18 01:02:07;;;;;;;1.80;1.70;;;;;15.20;95875.00;;;;5033264;28;20770;-56
2023/06/18 01:04:36;;;;;;;2.13;2.03;;;;;15.10;95881.00;;;;5033558;28;20567;-56
2023/06/18 01:07:13;;;;;;;1.77;1.63;;;;;15.00;95877.00;;;;5031992;28;20251;-57
2023/06/18 01:09:42;;;;;;;2.57;2.20;;;;;15.00;95881.00;;;;5033302;28;20212;-55
2023/06/18 01:12:10;;;;;;;1.57;1.37;;;;;15.00;95876.00;;;;5033612;28;20188;-57
2023/06/18 01:14:50;;;;;;;1.43;1.43;;;;;15.10;95869.00;;;;5033058;28;20216;-55
2023/06/18 01:17:18;;;;;;;3.40;1.97;;;;;14.90;95870.00;;;;5031724;28;20663;-56
2023/06/18 01:19:49;;;;;;;1.83;1.67;;;;;14.80;95871.00;;;;5032472;28;20209;-56
2023/06/18 01:22:27;;;;;;;1.13;1.13;;;;;14.60;95874.00;;;;5032930;28;20317;-60
2023/06/18 01:24:57;;;;;;;2.87;2.13;;;;;14.50;95863.00;;;;5033463;28;20234;-59
2023/06/18 01:27:27;;;;;;;4.23;2.20;;;;;14.40;95861.00;;;;5032850;28;20243;-55
2023/06/18 01:29:57;;;;;;;1.37;1.37;;;;;14.50;95866.00;;;;5032969;28;20221;-55
2023/06/18 01:32:24;;;;;;;5.27;2.23;;;;;14.50;95860.00;;;;5032870;28;20185;-55
2023/06/18 01:34:53;;;;;;;3.13;2.93;;;;;14.50;95865.00;;;;5033052;28;20199;-55
2023/06/18 01:37:35;;;;;;;1.60;1.50;;;;;14.50;95864.00;;;;5032282;28;20664;-55
2023/06/18 01:40:17;;;;;;;1.57;1.47;;;;;14.40;95861.00;;;;5032828;28;20228;-55
2023/06/18 01:42:51;;;;;;;1.83;1.73;;;;;14.40;95869.00;;;;5033284;28;20204;-57
2023/06/18 01:45:25;;;;;;;2.13;2.00;;;;;14.30;95867.00;;;;5033030;28;20543;-55
2023/06/18 01:47:56;;;;;;;1.27;1.23;;;;;14.20;95864.00;;;;5032832;28;20181;-55
2023/06/18 01:50:26;;;;;;;1.10;1.10;;;;;14.20;95868.00;;;;5032810;28;20522;-56
2023/06/18 01:52:57;;;;;;;0.97;0.97;;;;;14.30;95866.00;;;;5033538;28;20192;-55
2023/06/18 01:55:27;;;;;;;1.37;1.37;;;;;14.40;95863.00;;;;5032769;28;20659;-55
2023/06/18 01:57:55;;;;;;;1.90;1.80;;;;;14.50;95860.00;;;;5032624;28;20196;-55
2023/06/18 02:00:23;;;;;;;1.27;1.27;;;;;14.50;95859.00;;;;5032763;28;20208;-55
2023/06/18 02:02:51;;;;;;;1.83;1.73;;;;;14.40;95859.00;;;;5032471;28;20216;-55
2023/06/18 02:05:19;;;;;;;1.63;1.57;;;;;14.30;95858.00;;;;5032544;28;20794;-55
2023/06/18 02:07:47;;;;;;;4.70;1.80;;;;;14.30;95858.00;;;;5032764;28;20199;-55
2023/06/18 02:10:15;;;;;;;1.03;1.03;;;;;14.10;95858.00;;;;5032664;28;20582;-55
2023/06/18 02:12:43;;;;;;;2.03;1.93;;;;;14.10;95862.00;;;;5032398;28;20185;-55
2023/06/18 02:15:11;;;;;;;2.00;1.90;;;;;14.30;95864.00;;;;5032627;28;20201;-55
2023/06/18 02:17:38;;;;;;;1.93;1.83;;;;;14.30;95860.00;;;;5032424;28;20200;-55
2023/06/18 02:20:07;;;;;;;1.50;1.30;;;;;14.30;95863.00;;;;5032188;28;20621;-55
2023/06/18 02:22:35;;;;;;;1.97;1.87;;;;;14.40;95868.00;;;;5032581;28;20224;-55
2023/06/18 02:25:03;;;;;;;1.87;1.77;;;;;14.20;95871.00;;;;5032241;28;20209;-55
2023/06/18 02:27:31;;;;;;;3.13;2.10;;;;;14.20;95876.00;;;;5032283;28;20189;-55
2023/06/18 02:30:01;;;;;;;1.73;1.63;;;;;13.90;95870.00;;;;5033834;28;20263;-58
2023/06/18 02:32:31;;;;;;;3.20;1.50;;;;;14.00;95870.00;;;;5036461;28;20216;-56
2023/06/18 02:34:59;;;;;;;2.30;1.57;;;;;14.00;95865.00;;;;5036399;28;20193;-55
2023/06/18 02:37:27;;;;;;;1.80;1.70;;;;;13.90;95865.00;;;;5035862;28;20200;-55
2023/06/18 02:39:55;;;;;;;1.17;1.07;;;;;13.80;95862.00;;;;5035747;28;20220;-55
2023/06/18 02:42:23;;;;;;;1.37;1.37;;;;;13.80;95853.00;;;;5035758;28;20220;-55
2023/06/18 02:44:52;;;;;;;2.33;1.33;;;;;13.80;95857.00;;;;5035689;28;20275;-55
2023/06/18 02:47:20;;;;;;;1.97;1.83;;;;;13.80;95844.00;;;;5035710;28;20188;-55
2023/06/18 02:49:47;;;;;;;4.20;2.93;;;;;14.00;95845.00;;;;5035537;28;20213;-55
2023/06/18 02:52:15;;;;;;;1.97;1.87;;;;;14.00;95847.00;;;;5035888;28;20188;-55
2023/06/18 02:54:43;;;;;;;1.77;1.67;;;;;13.70;95845.00;;;;5035540;28;20192;-55
2023/06/18 02:57:11;;;;;;;1.13;1.10;;;;;13.60;95849.00;;;;5035591;28;20188;-55
2023/06/18 02:59:38;;;;;;;1.77;1.67;;;;;13.60;95859.00;;;;5035449;28;20216;-55
2023/06/18 03:02:08;;;;;;;1.77;1.67;;;;;13.70;95858.00;;;;5035609;28;20575;-55
2023/06/18 03:04:35;;;;;;;2.03;1.93;;;;;13.70;95858.00;;;;5035377;28;20189;-55
2023/06/18 03:07:03;;;;;;;1.87;1.77;;;;;13.70;95865.00;;;;5035757;28;20656;-55
2023/06/18 03:09:30;;;;;;;2.53;1.97;;;;;13.70;95863.00;;;;5035789;28;20262;-56
2023/06/18 03:11:57;;;;;;;1.27;1.17;;;;;13.70;95857.00;;;;5035193;28;20200;-55
2023/06/18 03:14:25;;;;;;;1.77;1.60;;;;;13.70;95858.00;;;;5035155;28;20197;-55
2023/06/18 03:16:53;;;;;;;2.23;2.03;;;;;13.70;95868.00;;;;5035130;28;20196;-55
2023/06/18 03:19:21;;;;;;;2.70;2.50;;;;;13.50;95854.00;;;;5035364;28;20577;-55
2023/06/18 03:21:49;;;;;;;2.20;2.00;;;;;13.50;95867.00;;;;5034888;28;20193;-57
2023/06/18 03:24:17;;;;;;;1.63;1.53;;;;;13.50;95870.00;;;;5035029;28;20207;-55
2023/06/18 03:26:45;;;;;;;2.13;1.93;;;;;13.40;95866.00;;;;5034947;28;20193;-55
2023/06/18 03:29:12;;;;;;;2.03;1.93;;;;;13.40;95862.00;;;;5035054;28;20226;-55
2023/06/18 03:31:40;;;;;;;2.57;2.37;;;;;13.40;95862.00;;;;5034804;28;20211;-55
2023/06/18 03:34:08;;;;;;;1.63;1.53;;;;;13.30;95860.00;;;;5034853;28;20243;-57
2023/06/18 03:36:41;;;;;;;1.97;1.87;;;;;13.40;95851.00;;;;5034819;28;20298;-55
2023/06/18 03:39:09;;;;;;;1.43;1.33;;;;;13.50;95855.00;;;;5034668;28;20260;-55
2023/06/18 03:41:36;;;;;;;2.43;2.27;;;;;13.60;95857.00;;;;5033976;28;20284;-55
2023/06/18 03:44:04;;;;;;;1.80;1.70;;;;;13.50;95864.00;;;;5034719;28;20217;-55
2023/06/18 03:46:31;;;;;;;2.00;1.90;;;;;13.50;95863.00;;;;5034614;28;20686;-55
2023/06/18 03:48:59;;;;;;;1.53;1.43;;;;;13.70;95865.00;;;;5034477;28;20226;-55
2023/06/18 03:51:27;;;;;;;1.30;1.30;;;;;13.60;95854.00;;;;5035020;28;20200;-55
2023/06/18 03:53:56;;;;;;;2.03;1.93;;;;;13.70;95863.00;;;;5034471;28;20189;-55
2023/06/18 03:56:23;;;;;;;1.00;1.00;;;;;13.70;95867.00;;;;5034359;28;20580;-55
2023/06/18 03:58:50;;;;;;;1.57;1.57;;;;;13.60;95867.00;;;;5034446;28;20636;-55
2023/06/18 04:01:18;;;;;;;1.73;1.63;;;;;13.60;95867.00;;;;5034568;28;20650;-55
2023/06/18 04:03:45;;;;;;;1.17;1.17;;;;;13.70;95869.00;;;;5034189;28;20227;-55
2023/06/18 04:06:13;;;;;;;1.27;1.27;;;;;13.70;95871.00;;;;5034198;28;20242;-55
2023/06/18 04:08:42;;;;;;;1.03;1.03;;;;;13.70;95867.00;;;;5034209;28;20200;-55
2023/06/18 04:11:11;;;;;;;2.70;2.60;;;;;13.80;95866.00;;;;5034102;28;20318;-56
2023/06/18 04:13:39;;;;;;;2.53;1.53;;;;;13.70;95864.00;;;;5032839;28;20694;-56
2023/06/18 04:16:06;;;;;;;2.73;2.30;;;;;13.70;95865.00;;;;5033984;28;20223;-55
2023/06/18 04:18:33;;;;;;;1.83;1.73;;;;;13.60;95863.00;;;;5032703;28;20687;-55
2023/06/18 04:21:01;;;;;;;2.60;2.40;;;;;13.70;95874.00;;;;5032676;28;20232;-55
2023/06/18 04:23:28;;;;;;;2.40;2.20;;;;;13.80;95865.00;;;;5033860;28;20220;-55
2023/06/18 04:25:56;;;;;;;1.27;1.27;;;;;13.70;95856.00;;;;5033813;28;20199;-55
2023/06/18 04:28:24;;;;;;;1.47;1.40;;;;;13.80;95861.00;;;;5033777;28;20243;-55
2023/06/18 04:30:52;;;;;;;1.57;1.50;;;;;13.90;95868.00;;;;5033702;28;20691;-55
2023/06/18 04:33:19;;;;;;;1.53;1.43;;;;;13.90;95869.00;;;;5033681;28;20188;-55
2023/06/18 04:35:46;;;;;;;3.70;1.97;;;;;13.90;95859.00;;;;5032392;28;20683;-55
2023/06/18 04:38:14;;;;;;;1.87;1.43;;;;;13.90;95858.00;;;;5033660;28;20201;-55
2023/06/18 04:40:41;;;;;;;1.50;1.40;;;;;14.00;95860.00;;;;5033384;28;20635;-55
2023/06/18 04:43:09;;;;;;;1.80;1.70;;;;;14.00;95866.00;;;;5033883;28;20553;-55
2023/06/18 04:45:37;;;;;;;1.87;1.47;;;;;14.00;95856.00;;;;5033584;28;20268;-55
2023/06/18 04:48:05;;;;;;;1.17;1.17;;;;;14.00;95865.00;;;;5033536;28;20200;-55
2023/06/18 04:50:33;;;;;;;1.40;1.40;;;;;14.20;95859.00;;;;5033762;28;20549;-55
2023/06/18 04:53:01;;;;;;;1.80;1.67;;;;;14.20;95860.00;;;;5033506;28;20189;-55
2023/06/18 04:55:28;;;;;;;2.53;1.80;;;;;14.20;95863.00;;;;5033534;28;20204;-55
2023/06/18 04:57:56;;;;;;;1.73;1.63;;;;;14.20;95858.00;;;;5033767;28;20619;-55
2023/06/18 05:00:23;;;;;;;1.77;1.67;;;;;14.20;95859.00;;;;5033605;28;20239;-55
2023/06/18 05:02:52;;;;;;;1.90;1.67;;;;;14.30;95852.00;;;;5033574;28;20267;-55
2023/06/18 05:05:19;;;;;;;2.00;1.87;;;;;14.20;95845.00;;;;5033497;28;20215;-55
2023/06/18 05:07:47;;;;;;;2.23;2.13;;;;;14.10;95846.00;;;;5033280;28;20656;-55
2023/06/18 05:10:14;;;;;;;1.73;1.63;;;;;14.20;95845.00;;;;5034249;28;20582;-55
2023/06/18 05:12:42;;;;;;;1.77;1.67;;;;;14.00;95844.00;;;;5034244;28;20203;-55
2023/06/18 05:15:09;;;;;;;1.73;1.63;;;;;14.10;95855.00;;;;5033959;28;20196;-55
2023/06/18 05:17:37;;;;;;;1.50;1.40;;;;;14.30;95852.00;;;;5033400;28;20196;-55
2023/06/18 05:20:08;;;;;;;1.83;1.70;;;;;14.60;95852.00;;;;5034958;28;20688;-55
2023/06/18 05:22:35;;;;;;;2.03;1.87;;;;;14.70;95860.00;;;;5033860;28;20275;-55
2023/06/18 05:25:04;;;;;;;1.97;1.87;;;;;14.90;95854.00;;;;5032966;28;20675;-55
2023/06/18 05:27:32;;;;;;;1.73;1.63;;;;;15.00;95847.00;;;;5033155;28;20193;-55
2023/06/18 05:30:00;;;;;;;2.00;1.90;;;;;15.10;95845.00;;;;5032872;28;20216;-55
2023/06/18 05:32:27;;;;;;;1.57;1.47;;;;;15.20;95847.00;;;;5032849;28;20239;-55
2023/06/18 05:34:55;;;;;;;1.07;1.07;;;;;15.20;95849.00;;;;5032804;28;20193;-55
2023/06/18 05:37:24;;;;;;;1.60;1.50;;;;;14.90;95858.00;;;;5032849;28;20220;-55
2023/06/18 05:39:52;;;;;;;2.43;2.23;;;;;15.10;95855.00;;;;5032648;28;20228;-55
2023/06/18 05:42:19;;;;;;;1.50;1.40;;;;;14.90;95854.00;;;;5033144;28;20550;-55
2023/06/18 05:44:47;;;;;;;1.93;1.17;;;;;15.10;95853.00;;;;5033002;28;20560;-55
2023/06/18 05:47:14;;;;;;;1.30;1.30;;;;;15.30;95851.00;;;;5032722;28;20258;-58
2023/06/18 05:49:42;;;;;;;1.83;1.73;;;;;15.40;95855.00;;;;5033142;28;20270;-55
2023/06/18 05:52:09;;;;;;;1.47;1.37;;;;;15.50;95855.00;;;;5033833;28;20259;-55
2023/06/18 05:54:38;;;;;;;1.20;1.20;;;;;15.60;95857.00;;;;5032876;28;20189;-55
2023/06/18 05:57:06;;;;;;;2.57;2.37;;;;;15.70;95862.00;;;;5033491;28;20193;-55
2023/06/18 05:59:33;;;;;;;1.90;1.80;;;;;15.80;95859.00;;;;5032788;28;20216;-55
2023/06/18 06:02:01;;;;;;;2.50;2.30;;;;;15.90;95860.00;;;;5032884;28;20652;-55
2023/06/18 06:04:28;;;;;;;1.30;1.30;;;;;16.10;95863.00;;;;5033720;28;20224;-55
2023/06/18 06:06:55;;;;;;;1.73;1.63;;;;;16.20;95866.00;;;;5037029;28;20197;-56
2023/06/18 06:09:23;;;;;;;1.83;1.73;;;;;16.30;95862.00;;;;5036421;28;20220;-55
2023/06/18 06:11:52;;;;;;;2.30;2.10;;;;;16.30;95861.00;;;;5036352;28;20251;-56
2023/06/18 06:14:19;;;;;;;2.33;2.13;;;;;16.40;95859.00;;;;5036720;28;20193;-56
2023/06/18 06:16:47;;;;;;;1.57;1.47;;;;;16.60;95858.00;;;;5035105;28;20209;-55
2023/06/18 06:19:14;;;;;;;1.07;1.07;;;;;16.70;95846.00;;;;5036232;28;20213;-55
2023/06/18 06:21:41;;;;;;;2.17;1.97;;;;;16.80;95849.00;;;;5036343;28;20197;-56
2023/06/18 06:24:09;;;;;;;1.90;1.77;;;;;17.00;95855.00;;;;5036487;28;20224;-55
2023/06/18 06:26:36;;;;;;;1.70;1.30;;;;;17.10;95846.00;;;;5036512;28;20560;-55
2023/06/18 06:29:05;;;;;;;1.83;1.63;;;;;17.30;95842.00;;;;5036691;28;20199;-55
2023/06/18 06:31:32;;;;;;;2.00;1.83;;;;;17.30;95855.00;;;;5036093;28;20192;-55
2023/06/18 06:33:59;;;;;;;1.63;1.53;;;;;17.40;95854.00;;;;5036194;28;20196;-56
2023/06/18 06:36:27;;;;;;;1.37;1.27;;;;;17.60;95848.00;;;;5036538;28;20697;-56
2023/06/18 06:38:54;;;;;;;1.93;1.83;;;;;17.60;95846.00;;;;5036184;28;20189;-56
2023/06/18 06:41:22;;;;;;;1.20;1.13;;;;;17.80;95857.00;;;;5035833;28;20193;-55
2023/06/18 06:43:49;;;;;;;2.03;1.93;;;;;17.70;95855.00;;;;5035963;28;20204;-57
2023/06/18 06:46:18;;;;;;;1.60;1.50;;;;;17.90;95849.00;;;;5036085;28;20271;-56
2023/06/18 06:48:45;;;;;;;1.97;1.87;;;;;17.80;95849.00;;;;5035856;28;20197;-56
2023/06/18 06:51:13;;;;;;;2.53;2.10;;;;;18.10;95852.00;;;;5035651;28;20220;-56
2023/06/18 06:53:40;;;;;;;2.10;1.73;;;;;18.20;95845.00;;;;5035784;28;20193;-56
2023/06/18 06:56:08;;;;;;;1.80;1.70;;;;;18.40;95847.00;;;;5034428;28;20193;-56
2023/06/18 06:58:35;;;;;;;1.90;1.80;;;;;18.60;95848.00;;;;5035672;28;20559;-56
2023/06/18 07:01:02;;;;;;;2.80;1.73;;;;;18.70;95856.00;;;;5035573;28;20620;-56
2023/06/18 07:03:31;;;;;;;4.50;2.83;;;;;19.00;95854.00;;;;5035545;28;20220;-57
2023/06/18 07:05:59;;;;;;;0.90;0.90;;;;;19.10;95857.00;;;;5035611;28;20204;-57
2023/06/18 07:08:26;;;;;;;1.53;1.43;;;;;19.30;95859.00;;;;5035771;28;20203;-56
2023/06/18 07:10:54;;;;;;;2.20;2.00;;;;;19.60;95852.00;;;;5035363;28;20216;-56
2023/06/18 07:13:21;;;;;;;2.07;1.97;;;;;19.80;95853.00;;;;5035576;28;20548;-56
2023/06/18 07:15:48;;;;;;;2.80;1.87;;;;;19.80;95850.00;;;;5034888;28;20204;-57
2023/06/18 07:18:16;;;;;;;1.70;1.60;;;;;19.90;95850.00;;;;5035089;28;20276;-57
2023/06/18 07:20:45;;;;;;;1.60;1.50;;;;;20.10;95848.00;;;;5035365;28;20221;-56
2023/06/18 07:23:12;;;;;;;1.80;1.60;;;;;20.20;95846.00;;;;5035062;28;20204;-56
2023/06/18 07:25:39;;;;;;;1.07;1.07;;;;;20.60;95856.00;;;;5034973;28;20690;-56
2023/06/18 07:28:07;;;;;;;1.52;1.45;;;;;20.90;95859.00;;;;5035048;28;20192;-56
2023/06/18 07:30:34;;;;;;;1.83;1.73;;;;;20.90;95851.00;;;;5035042;28;20208;-56
2023/06/18 07:33:02;;;;;;;0.70;0.70;;;;;21.00;95855.00;;;;5035015;28;20199;-56
2023/06/18 07:35:29;;;;;;;1.40;1.30;;;;;21.30;95853.00;;;;5034883;28;20690;-57
2023/06/18 07:37:58;;;;;;;1.13;1.13;;;;;21.40;95854.00;;;;5034771;28;20661;-56
2023/06/18 07:40:28;;;;;;;0.85;0.85;;;;;21.50;95850.00;;;;5034537;28;20279;-56
2023/06/18 07:42:55;;;;;;;1.00;1.00;;;;;21.70;95846.00;;;;5035141;28;20189;-56
2023/06/18 07:45:23;;;;;;;1.08;1.08;;;;;21.80;95846.00;;;;5034886;28;20702;-56
2023/06/18 07:47:50;;;;;;;1.90;1.80;;;;;22.20;95849.00;;;;5034849;28;20610;-56
2023/06/18 07:50:18;;;;;;;1.40;1.10;;;;;22.40;95845.00;;;;5034550;28;20217;-56
2023/06/18 07:52:45;;;;;;;1.52;1.38;;;;;22.40;95850.00;;;;5034586;28;20197;-56
2023/06/18 07:55:14;;;;;;;0.80;0.80;;;;;22.70;95849.00;;;;5034467;28;20189;-56
2023/06/18 07:57:41;;;;;;;3.33;2.78;;;;;22.80;95852.00;;;;5034390;28;20193;-56
2023/06/18 08:00:10;;;;;;;1.75;1.65;;;;;23.10;95843.00;;;;5034283;28;20216;-56
2023/06/18 08:02:38;;;;;;;0.90;0.90;;;;;23.20;95852.00;;;;5033135;28;20287;-59
2023/06/18 08:05:07;;;;;;;1.20;1.20;;;;;23.30;95847.00;;;;5034742;28;20255;-59
2023/06/18 08:07:35;;;;;;;1.83;1.25;;;;;23.60;95845.00;;;;5034352;28;20189;-58
2023/06/18 08:10:02;;;;;;;1.13;1.13;;;;;23.60;95850.00;;;;5035028;28;20704;-56
2023/06/18 08:12:31;;;;;;;1.45;1.45;;;;;23.60;95845.00;;;;5034634;28;20200;-56
2023/06/18 08:14:58;;;;;;;1.63;1.52;;;;;23.70;95852.00;;;;5034214;28;20664;-55
2023/06/18 08:17:26;;;;;;;1.77;1.38;;;;;23.70;95851.00;;;;5034249;28;20192;-56
2023/06/18 08:19:53;;;;;;;1.83;1.73;;;;;23.90;95847.00;;;;5034133;28;20258;-55
2023/06/18 08:22:21;;;;;;;1.17;1.13;;;;;24.00;95845.00;;;;5032823;28;20201;-55
2023/06/18 08:24:48;;;;;;;1.27;1.27;;;;;24.00;95850.00;;;;5034017;28;20208;-55
2023/06/18 08:27:16;;;;;;;1.85;1.73;;;;;24.20;95853.00;;;;5033983;28;20551;-55
2023/06/18 08:29:44;;;;;;;1.40;1.30;;;;;24.40;95843.00;;;;5034184;28;20220;-55
2023/06/18 08:32:13;;;;;;;1.45;1.38;;;;;24.50;95844.00;;;;5032696;28;20196;-55
2023/06/18 08:34:42;;;;;;;1.60;1.50;;;;;24.60;95843.00;;;;5033959;28;20197;-55
2023/06/18 08:37:10;;;;;;;1.45;1.35;;;;;24.70;95832.00;;;;5034010;28;20212;-55
2023/06/18 08:39:37;;;;;;;1.55;1.33;;;;;24.70;95836.00;;;;5032337;28;20319;-55
2023/06/18 08:42:06;;;;;;;1.60;1.52;;;;;24.70;95836.00;;;;5033929;28;20204;-56
2023/06/18 08:44:34;;;;;;;0.70;0.70;;;;;24.90;95845.00;;;;5033516;28;20295;-55
2023/06/18 08:47:04;;;;;;;0.75;0.75;;;;;24.80;95840.00;;;;5033819;28;20196;-55
2023/06/18 08:49:32;;;;;;;2.08;1.88;;;;;24.90;95831.00;;;;5033535;28;20219;-55
2023/06/18 08:52:06;;;;;;;1.17;1.10;;;;;24.90;95837.00;;;;5034049;28;20197;-55
2023/06/18 08:54:35;;;;;;;1.15;1.15;;;;;25.10;95839.00;;;;5033766;28;20632;-55
2023/06/18 08:57:11;;;;;;;1.33;1.23;;;;;25.00;95833.00;;;;5033443;28;20188;-55
2023/06/18 08:59:41;;;;;;;1.60;1.50;;;;;25.10;95828.00;;;;5033555;28;20227;-55
2023/06/18 09:02:12;;;;;;;1.63;1.52;;;;;25.20;95836.00;;;;5033354;28;20204;-56
2023/06/18 09:04:40;;;;;;;1.00;1.00;;;;;25.10;95825.00;;;;5033614;28;20232;-55
2023/06/18 09:07:08;;;;;;;1.80;1.70;;;;;25.10;95830.00;;;;5033412;28;20201;-56
2023/06/18 09:09:37;;;;;;;1.20;1.15;;;;;24.90;95840.00;;;;5033564;28;20204;-56
2023/06/18 09:12:06;;;;;;;1.42;1.33;;;;;25.10;95831.00;;;;5033271;28;20280;-63
2023/06/18 09:14:33;;;;;;;1.10;1.10;;;;;25.00;95825.00;;;;5033321;28;20671;-55
2023/06/18 09:17:01;;;;;;;1.42;1.33;;;;;25.20;95833.00;;;;5033142;28;20207;-56
2023/06/18 09:19:30;;;;;;;1.58;1.48;;;;;25.20;95829.00;;;;5033412;28;20217;-55
2023/06/18 09:22:11;;;;;;;1.25;1.17;;;;;25.30;95823.00;;;;5033607;28;20192;-55
2023/06/18 09:24:38;;;;;;;1.25;1.25;;;;;25.60;95827.00;;;;5033285;28;20205;-55
2023/06/18 09:27:07;;;;;;;1.73;1.63;;;;;25.60;95829.00;;;;5032997;28;20196;-56
2023/06/18 09:29:35;;;;;;;1.15;1.15;;;;;25.60;95830.00;;;;5032950;28;20247;-55
2023/06/18 09:32:08;;;;;;;1.40;1.30;;;;;25.50;95826.00;;;;5032971;28;20656;-55
2023/06/18 09:34:37;;;;;;;1.13;0.93;;;;;25.50;95829.00;;;;5032992;28;20184;-55
2023/06/18 09:37:06;;;;;;;4.15;1.25;;;;;25.70;95823.00;;;;5032899;28;20188;-55
2023/06/18 09:39:35;;;;;;;1.10;1.10;;;;;25.70;95822.00;;;;5031952;28;20588;-55
2023/06/18 09:42:08;;;;;;;1.10;1.10;;;;;25.70;95818.00;;;;5032882;28;20606;-55
2023/06/18 09:44:36;;;;;;;1.15;1.15;;;;;25.90;95815.00;;;;5033064;28;20208;-55
2023/06/18 09:47:10;;;;;;;1.58;1.48;;;;;26.20;95819.00;;;;5032948;28;20196;-56
2023/06/18 09:49:40;;;;;;;1.02;1.02;;;;;26.30;95822.00;;;;5032996;28;20254;-55
2023/06/18 09:52:08;;;;;;;1.15;1.15;;;;;26.20;95820.00;;;;5032669;28;20254;-55
2023/06/18 09:54:40;;;;;;;1.70;1.60;;;;;26.30;95811.00;;;;5032919;28;20189;-55
2023/06/18 09:57:08;;;;;;;2.45;1.48;;;;;26.30;95811.00;;;;5032115;28;20620;-55
2023/06/18 09:59:36;;;;;;;2.45;1.75;;;;;26.40;95815.00;;;;5032694;28;20224;-55
2023/06/18 10:02:04;;;;;;;1.42;1.33;;;;;26.60;95812.00;;;;5032752;28;20188;-56
2023/06/18 10:04:33;;;;;;;1.00;1.00;;;;;26.70;95812.00;;;;5032652;28;20221;-55
2023/06/18 10:07:05;;;;;;;0.80;0.80;;;;;26.90;95813.00;;;;5032749;28;20220;-56
2023/06/18 10:09:36;;;;;;;1.25;1.25;;;;;26.70;95815.00;;;;5032726;28;20213;-55
2023/06/18 10:12:05;;;;;;;1.17;1.00;;;;;26.60;95804.00;;;;5033266;28;20576;-56
2023/06/18 10:14:34;;;;;;;2.35;2.08;;;;;26.70;95807.00;;;;5032894;28;20299;-55
2023/06/18 10:17:08;;;;;;;1.38;1.38;;;;;26.80;95813.00;;;;5032556;28;20196;-55
2023/06/18 10:19:44;;;;;;;2.10;1.90;;;;;27.10;95801.00;;;;5032627;28;20223;-56
2023/06/18 10:22:15;;;;;;;2.13;2.00;;;;;27.20;95801.00;;;;5033006;28;20189;-56
2023/06/18 10:24:59;;;;;;;1.27;1.17;;;;;27.40;95804.00;;;;5032514;28;20208;-57
2023/06/18 10:27:27;;;;;;;0.90;0.90;;;;;27.40;95804.00;;;;5032627;28;20212;-55
2023/06/18 10:29:57;;;;;;;2.20;1.55;;;;;27.30;95808.00;;;;5032632;28;20213;-55
2023/06/18 10:32:25;;;;;;;1.55;1.45;;;;;27.50;95800.00;;;;5032929;28;20224;-55
2023/06/18 10:34:53;;;;;;;1.52;1.45;;;;;27.60;95795.00;;;;5032447;28;20263;-55
2023/06/18 10:37:23;;;;;;;1.73;1.38;;;;;27.70;95798.00;;;;5032343;28;20201;-55
2023/06/18 10:39:51;;;;;;;3.70;2.17;;;;;27.60;95794.00;;;;5032057;28;20213;-55
2023/06/18 10:42:19;;;;;;;1.77;1.67;;;;;27.80;95805.00;;;;5032574;28;20197;-55
2023/06/18 10:44:52;;;;;;;1.38;1.33;;;;;27.10;95794.00;;;;5032485;28;20703;-55
2023/06/18 10:47:22;;;;;;;1.13;1.13;;;;;27.40;95790.00;;;;5030864;28;20622;-55
2023/06/18 10:50:17;;;;;;;1.17;1.15;;;;;27.50;95788.00;;;;5032070;28;20217;-55
2023/06/18 10:52:49;;;;;;;1.08;1.05;;;;;27.90;95789.00;;;;5022636;28;20613;-56
2023/06/18 10:55:28;;;;;;;1.38;1.27;;;;;28.10;95785.00;;;;5036229;28;20181;-54
2023/06/18 10:58:01;;;;;;;1.23;1.23;;;;;28.20;95776.00;;;;5035652;28;20185;-55
2023/06/18 11:00:37;;;;;;;1.58;1.48;;;;;28.40;95777.00;;;;5035551;28;20270;-54
2023/06/18 11:03:07;;;;;;;1.23;1.23;;;;;28.40;95786.00;;;;5035515;28;20552;-55
2023/06/18 11:05:49;;;;;;;7.82;1.77;;;;;28.50;95775.00;;;;5035897;28;20732;-55
2023/06/18 11:08:26;;;;;;;1.50;1.40;;;;;28.50;95770.00;;;;5036047;28;20250;-55
2023/06/18 11:11:03;;;;;;;1.80;1.70;;;;;28.80;95775.00;;;;5035618;28;20758;-55
2023/06/18 11:13:32;;;;;;;1.17;1.13;;;;;28.50;95760.00;;;;5035420;28;20242;-54
2023/06/18 11:16:02;;;;;;;1.27;1.27;;;;;28.90;95762.00;;;;5035536;28;20193;-57
2023/06/18 11:18:31;;;;;;;1.63;1.52;;;;;29.00;95768.00;;;;5035758;28;20529;-55
2023/06/18 11:21:00;;;;;;;1.65;1.45;;;;;29.20;95755.00;;;;5035654;28;20267;-55
2023/06/18 11:23:31;;;;;;;2.97;1.55;;;;;29.40;95755.00;;;;5035705;28;20197;-55
2023/06/18 11:25:58;;;;;;;1.70;1.48;;;;;29.50;95752.00;;;;5035222;28;20205;-55
2023/06/18 11:28:26;;;;;;;1.50;1.35;;;;;29.70;95746.00;;;;5035072;28;20214;-55
2023/06/18 11:30:57;;;;;;;1.45;1.35;;;;;29.40;95752.00;;;;5035209;28;20291;-55
2023/06/18 11:33:26;;;;;;;1.48;1.40;;;;;29.70;95744.00;;;;5035409;28;20209;-55
2023/06/18 11:35:55;;;;;;;0.70;0.70;;;;;29.90;95737.00;;;;5034914;28;20221;-55
2023/06/18 11:38:25;;;;;;;1.00;1.00;;;;;29.80;95733.00;;;;5034902;28;20197;-55
2023/06/18 11:40:55;;;;;;;1.67;1.58;;;;;30.00;95734.00;;;;5035015;28;20224;-55
2023/06/18 11:43:23;;;;;;;1.38;1.23;;;;;30.30;95728.00;;;;5034848;28;20231;-55
2023/06/18 11:45:51;;;;;;;0.90;0.90;;;;;30.50;95717.00;;;;5034952;28;20217;-56
2023/06/18 11:48:21;;;;;;;1.00;1.00;;;;;30.60;95719.00;;;;5034700;28;20243;-55
2023/06/18 11:50:53;;;;;;;1.45;1.35;;;;;30.70;95710.00;;;;5034556;28;20247;-55
2023/06/18 11:53:21;;;;;;;2.55;2.08;;;;;30.50;95721.00;;;;5035199;28;20185;-55
2023/06/18 11:55:49;;;;;;;1.20;1.15;;;;;30.80;95710.00;;;;5034786;28;20531;-55
2023/06/18 11:58:20;;;;;;;0.90;0.90;;;;;31.20;95705.00;;;;5034536;28;20262;-55
2023/06/18 12:00:47;;;;;;;1.77;1.67;;;;;31.40;95701.00;;;;5034551;28;20240;-56
2023/06/18 12:03:15;;;;;;;1.08;1.08;;;;;31.00;95715.00;;;;5034189;28;20551;-55
2023/06/18 12:05:42;;;;;;;1.55;1.50;;;;;31.20;95709.00;;;;5034326;28;20216;-55
2023/06/18 12:08:11;;;;;;;1.00;1.00;;;;;31.00;95716.00;;;;5034429;28;20227;-55
2023/06/18 12:10:39;;;;;;;1.38;1.30;;;;;30.70;95714.00;;;;5034239;28;20296;-55
2023/06/18 12:13:16;;;;;;;1.77;1.67;;;;;30.60;95707.00;;;;5034609;28;20279;-55
2023/06/18 12:15:52;;;;;;;1.50;1.40;;;;;30.80;95703.00;;;;5034463;28;20208;-55
2023/06/18 12:18:28;;;;;;;2.67;2.50;;;;;30.90;95696.00;;;;5034190;28;20284;-55
2023/06/18 12:20:56;;;;;;;1.45;1.45;;;;;31.40;95708.00;;;;5034112;28;20290;-55
2023/06/18 12:23:24;;;;;;;2.70;1.38;;;;;31.60;95703.00;;;;5034127;28;20189;-55
2023/06/18 12:25:52;;;;;;;1.38;1.38;;;;;32.00;95707.00;;;;5034008;28;20255;-56